sensor_id;sensor_type;location;lat;lon;timestamp;P1;durP1;ratioP1;P2;durP2;ratioP2
17997;SDS011;9124;48.144;17.098;2022-09-13T00:02:59;1.83;;;1.63;;
17997;SDS011;9124;48.144;17.098;2022-09-13T00:06:37;3.05;;;1.80;;
17997;SDS011;9124;48.144;17.098;2022-09-13T00:10:13;4.40;;;1.40;;
17997;SDS011;9124;48.144;17.098;2022-09-13T00:13:51;1.52;;;1.42;;
17997;SDS011;9124;48.144;17.098;2022-09-13T00:17:28;1.30;;;1.23;;
17997;SDS011;9124;48.144;17.098;2022-09-13T00:21:07;2.17;;;1.50;;
17997;SDS011;9124;48.144;17.098;2022-09-13T00:34:07;1.02;;;1.00;;
17997;SDS011;9124;48.144;17.098;2022-09-13T00:37:45;1.40;;;1.30;;
17997;SDS011;9124;48.144;17.098;2022-09-13T00:41:21;1.92;;;1.60;;
17997;SDS011;9124;48.144;17.098;2022-09-13T00:45:00;1.88;;;1.63;;
17997;SDS011;9124;48.144;17.098;2022-09-13T00:48:49;3.72;;;1.50;;
17997;SDS011;9124;48.144;17.098;2022-09-13T00:52:32;3.28;;;1.50;;
17997;SDS011;9124;48.144;17.098;2022-09-13T00:56:14;6.63;;;1.60;;
17997;SDS011;9124;48.144;17.098;2022-09-13T00:59:59;1.30;;;1.20;;
17997;SDS011;9124;48.144;17.098;2022-09-13T01:03:49;2.20;;;1.60;;
17997;SDS011;9124;48.144;17.098;2022-09-13T01:07:26;1.50;;;1.40;;
17997;SDS011;9124;48.144;17.098;2022-09-13T01:11:03;1.55;;;1.45;;
17997;SDS011;9124;48.144;17.098;2022-09-13T01:14:43;1.65;;;1.55;;
17997;SDS011;9124;48.144;17.098;2022-09-13T01:18:21;3.50;;;1.42;;
17997;SDS011;9124;48.144;17.098;2022-09-13T01:33:55;2.30;;;2.00;;
17997;SDS011;9124;48.144;17.098;2022-09-13T01:37:41;1.70;;;1.60;;
17997;SDS011;9124;48.144;17.098;2022-09-13T01:49:45;2.60;;;1.85;;
17997;SDS011;9124;48.144;17.098;2022-09-13T01:53:32;2.50;;;2.30;;
17997;SDS011;9124;48.144;17.098;2022-09-13T01:57:34;3.95;;;2.45;;
17997;SDS011;9124;48.144;17.098;2022-09-13T02:01:18;6.55;;;1.92;;
17997;SDS011;9124;48.144;17.098;2022-09-13T02:05:10;2.83;;;1.77;;
17997;SDS011;9124;48.144;17.098;2022-09-13T02:08:59;2.67;;;2.25;;
17997;SDS011;9124;48.144;17.098;2022-09-13T02:12:42;2.25;;;2.05;;
17997;SDS011;9124;48.144;17.098;2022-09-13T02:16:31;2.10;;;1.90;;
17997;SDS011;9124;48.144;17.098;2022-09-13T02:20:26;2.65;;;1.98;;
17997;SDS011;9124;48.144;17.098;2022-09-13T02:24:12;1.85;;;1.75;;
17997;SDS011;9124;48.144;17.098;2022-09-13T02:27:54;2.03;;;1.92;;
17997;SDS011;9124;48.144;17.098;2022-09-13T02:31:38;2.55;;;2.45;;
17997;SDS011;9124;48.144;17.098;2022-09-13T02:35:20;2.35;;;2.15;;
17997;SDS011;9124;48.144;17.098;2022-09-13T02:39:02;2.38;;;1.90;;
17997;SDS011;9124;48.144;17.098;2022-09-13T02:42:58;2.13;;;1.75;;
17997;SDS011;9124;48.144;17.098;2022-09-13T02:50:24;4.70;;;2.13;;
17997;SDS011;9124;48.144;17.098;2022-09-13T02:54:29;2.75;;;2.25;;
17997;SDS011;9124;48.144;17.098;2022-09-13T02:58:18;1.90;;;1.80;;
17997;SDS011;9124;48.144;17.098;2022-09-13T03:11:15;2.03;;;1.92;;
17997;SDS011;9124;48.144;17.098;2022-09-13T03:19:03;4.00;;;1.80;;
17997;SDS011;9124;48.144;17.098;2022-09-13T03:26:43;2.60;;;2.20;;
17997;SDS011;9124;48.144;17.098;2022-09-13T03:30:40;4.10;;;2.05;;
17997;SDS011;9124;48.144;17.098;2022-09-13T03:34:59;2.03;;;1.92;;
17997;SDS011;9124;48.144;17.098;2022-09-13T03:46:53;3.42;;;1.70;;
17997;SDS011;9124;48.144;17.098;2022-09-13T03:50:33;2.00;;;1.90;;
17997;SDS011;9124;48.144;17.098;2022-09-13T03:54:14;2.30;;;2.15;;
17997;SDS011;9124;48.144;17.098;2022-09-13T03:57:57;2.05;;;1.95;;
17997;SDS011;9124;48.144;17.098;2022-09-13T04:01:34;2.47;;;2.17;;
17997;SDS011;9124;48.144;17.098;2022-09-13T04:05:11;1.98;;;1.88;;
17997;SDS011;9124;48.144;17.098;2022-09-13T04:08:47;2.03;;;1.92;;
17997;SDS011;9124;48.144;17.098;2022-09-13T04:12:24;2.72;;;2.53;;
17997;SDS011;9124;48.144;17.098;2022-09-13T04:16:04;2.38;;;2.28;;
17997;SDS011;9124;48.144;17.098;2022-09-13T04:19:42;3.25;;;2.00;;
17997;SDS011;9124;48.144;17.098;2022-09-13T04:23:21;2.47;;;2.28;;
17997;SDS011;9124;48.144;17.098;2022-09-13T04:26:58;4.20;;;2.67;;
17997;SDS011;9124;48.144;17.098;2022-09-13T04:30:36;2.42;;;2.22;;
17997;SDS011;9124;48.144;17.098;2022-09-13T04:34:13;2.80;;;2.55;;
17997;SDS011;9124;48.144;17.098;2022-09-13T04:37:50;2.80;;;2.60;;
17997;SDS011;9124;48.144;17.098;2022-09-13T04:41:29;4.78;;;2.78;;
17997;SDS011;9124;48.144;17.098;2022-09-13T04:45:08;7.43;;;3.10;;
17997;SDS011;9124;48.144;17.098;2022-09-13T04:48:49;3.42;;;2.78;;
17997;SDS011;9124;48.144;17.098;2022-09-13T04:52:27;5.43;;;3.00;;
17997;SDS011;9124;48.144;17.098;2022-09-13T04:56:03;3.53;;;2.70;;
17997;SDS011;9124;48.144;17.098;2022-09-13T05:08:52;4.68;;;4.28;;
17997;SDS011;9124;48.144;17.098;2022-09-13T05:12:30;4.47;;;4.15;;
17997;SDS011;9124;48.144;17.098;2022-09-13T05:16:07;7.50;;;4.28;;
17997;SDS011;9124;48.144;17.098;2022-09-13T05:19:44;5.78;;;5.28;;
17997;SDS011;9124;48.144;17.098;2022-09-13T05:23:21;9.20;;;6.38;;
17997;SDS011;9124;48.144;17.098;2022-09-13T05:26:58;6.90;;;6.25;;
17997;SDS011;9124;48.144;17.098;2022-09-13T05:30:35;5.07;;;4.68;;
17997;SDS011;9124;48.144;17.098;2022-09-13T05:34:13;4.63;;;4.13;;
17997;SDS011;9124;48.144;17.098;2022-09-13T05:37:52;3.90;;;3.58;;
17997;SDS011;9124;48.144;17.098;2022-09-13T05:41:29;4.35;;;3.88;;
17997;SDS011;9124;48.144;17.098;2022-09-13T05:45:06;7.13;;;3.75;;
17997;SDS011;9124;48.144;17.098;2022-09-13T05:48:44;5.65;;;5.20;;
17997;SDS011;9124;48.144;17.098;2022-09-13T05:52:21;23.02;;;6.07;;
17997;SDS011;9124;48.144;17.098;2022-09-13T05:55:58;6.82;;;6.32;;
17997;SDS011;9124;48.144;17.098;2022-09-13T05:59:35;11.82;;;7.53;;
17997;SDS011;9124;48.144;17.098;2022-09-13T06:03:12;10.10;;;7.30;;
17997;SDS011;9124;48.144;17.098;2022-09-13T06:06:48;7.47;;;6.80;;
17997;SDS011;9124;48.144;17.098;2022-09-13T06:10:25;9.60;;;6.00;;
17997;SDS011;9124;48.144;17.098;2022-09-13T06:14:02;11.98;;;6.72;;
17997;SDS011;9124;48.144;17.098;2022-09-13T06:17:38;10.05;;;6.05;;
17997;SDS011;9124;48.144;17.098;2022-09-13T06:21:16;5.28;;;4.82;;
17997;SDS011;9124;48.144;17.098;2022-09-13T06:24:55;7.32;;;4.40;;
17997;SDS011;9124;48.144;17.098;2022-09-13T06:28:32;4.43;;;4.03;;
17997;SDS011;9124;48.144;17.098;2022-09-13T06:32:09;6.07;;;3.38;;
17997;SDS011;9124;48.144;17.098;2022-09-13T06:35:46;3.65;;;3.35;;
17997;SDS011;9124;48.144;17.098;2022-09-13T06:39:22;7.63;;;3.95;;
17997;SDS011;9124;48.144;17.098;2022-09-13T06:42:59;5.15;;;4.13;;
17997;SDS011;9124;48.144;17.098;2022-09-13T06:46:36;4.50;;;3.80;;
17997;SDS011;9124;48.144;17.098;2022-09-13T06:50:13;6.15;;;4.10;;
17997;SDS011;9124;48.144;17.098;2022-09-13T06:53:50;7.20;;;3.95;;
17997;SDS011;9124;48.144;17.098;2022-09-13T06:57:31;4.38;;;3.97;;
17997;SDS011;9124;48.144;17.098;2022-09-13T07:01:09;13.95;;;5.20;;
17997;SDS011;9124;48.144;17.098;2022-09-13T07:04:51;11.18;;;4.60;;
17997;SDS011;9124;48.144;17.098;2022-09-13T07:08:32;5.07;;;4.57;;
17997;SDS011;9124;48.144;17.098;2022-09-13T07:12:09;5.40;;;4.90;;
17997;SDS011;9124;48.144;17.098;2022-09-13T07:24:59;6.10;;;3.95;;
17997;SDS011;9124;48.144;17.098;2022-09-13T07:28:37;5.05;;;3.50;;
17997;SDS011;9124;48.144;17.098;2022-09-13T07:32:15;10.43;;;4.10;;
17997;SDS011;9124;48.144;17.098;2022-09-13T07:35:55;9.18;;;3.95;;
17997;SDS011;9124;48.144;17.098;2022-09-13T07:39:33;6.28;;;3.58;;
17997;SDS011;9124;48.144;17.098;2022-09-13T07:43:10;3.58;;;3.25;;
17997;SDS011;9124;48.144;17.098;2022-09-13T07:46:46;6.03;;;3.55;;
17997;SDS011;9124;48.144;17.098;2022-09-13T07:50:23;3.08;;;2.88;;
17997;SDS011;9124;48.144;17.098;2022-09-13T07:54:01;2.92;;;2.72;;
17997;SDS011;9124;48.144;17.098;2022-09-13T07:57:39;8.57;;;3.20;;
17997;SDS011;9124;48.144;17.098;2022-09-13T08:01:20;4.30;;;2.90;;
17997;SDS011;9124;48.144;17.098;2022-09-13T08:05:04;4.65;;;3.45;;
17997;SDS011;9124;48.144;17.098;2022-09-13T08:08:41;5.40;;;3.20;;
17997;SDS011;9124;48.144;17.098;2022-09-13T08:12:18;3.40;;;3.05;;
17997;SDS011;9124;48.144;17.098;2022-09-13T08:15:54;7.13;;;3.67;;
17997;SDS011;9124;48.144;17.098;2022-09-13T08:19:31;3.80;;;3.38;;
17997;SDS011;9124;48.144;17.098;2022-09-13T08:23:08;4.95;;;3.53;;
17997;SDS011;9124;48.144;17.098;2022-09-13T08:26:47;3.13;;;2.80;;
17997;SDS011;9124;48.144;17.098;2022-09-13T08:30:26;6.28;;;3.05;;
17997;SDS011;9124;48.144;17.098;2022-09-13T08:34:11;7.82;;;3.38;;
17997;SDS011;9124;48.144;17.098;2022-09-13T08:37:50;5.03;;;3.70;;
17997;SDS011;9124;48.144;17.098;2022-09-13T08:46:00;4.78;;;3.40;;
17997;SDS011;9124;48.144;17.098;2022-09-13T08:49:42;3.40;;;3.10;;
17997;SDS011;9124;48.144;17.098;2022-09-13T08:53:29;4.82;;;3.65;;
17997;SDS011;9124;48.144;17.098;2022-09-13T08:57:18;5.20;;;3.65;;
17997;SDS011;9124;48.144;17.098;2022-09-13T09:14:29;5.82;;;3.63;;
17997;SDS011;9124;48.144;17.098;2022-09-13T09:21:48;4.30;;;3.75;;
17997;SDS011;9124;48.144;17.098;2022-09-13T09:25:27;4.47;;;4.18;;
17997;SDS011;9124;48.144;17.098;2022-09-13T09:29:16;4.15;;;3.85;;
17997;SDS011;9124;48.144;17.098;2022-09-13T09:41:02;3.35;;;3.05;;
17997;SDS011;9124;48.144;17.098;2022-09-13T09:49:13;4.32;;;3.42;;
17997;SDS011;9124;48.144;17.098;2022-09-13T09:53:24;3.75;;;3.55;;
17997;SDS011;9124;48.144;17.098;2022-09-13T09:57:14;3.05;;;2.55;;
17997;SDS011;9124;48.144;17.098;2022-09-13T10:00:56;5.28;;;2.60;;
17997;SDS011;9124;48.144;17.098;2022-09-13T10:04:34;6.50;;;3.13;;
17997;SDS011;9124;48.144;17.098;2022-09-13T10:12:01;3.85;;;2.90;;
17997;SDS011;9124;48.144;17.098;2022-09-13T10:15:50;3.75;;;2.40;;
17997;SDS011;9124;48.144;17.098;2022-09-13T10:19:29;3.53;;;2.47;;
17997;SDS011;9124;48.144;17.098;2022-09-13T10:23:26;3.00;;;2.80;;
17997;SDS011;9124;48.144;17.098;2022-09-13T10:27:03;5.78;;;2.50;;
17997;SDS011;9124;48.144;17.098;2022-09-13T10:30:56;2.85;;;2.63;;
17997;SDS011;9124;48.144;17.098;2022-09-13T10:34:35;2.50;;;2.30;;
17997;SDS011;9124;48.144;17.098;2022-09-13T10:38:19;4.20;;;2.33;;
17997;SDS011;9124;48.144;17.098;2022-09-13T10:42:07;2.75;;;2.47;;
17997;SDS011;9124;48.144;17.098;2022-09-13T10:45:48;9.02;;;2.22;;
17997;SDS011;9124;48.144;17.098;2022-09-13T10:49:37;3.00;;;2.50;;
17997;SDS011;9124;48.144;17.098;2022-09-13T10:53:31;5.70;;;2.58;;
17997;SDS011;9124;48.144;17.098;2022-09-13T11:01:32;5.88;;;2.25;;
17997;SDS011;9124;48.144;17.098;2022-09-13T11:05:25;4.35;;;2.42;;
17997;SDS011;9124;48.144;17.098;2022-09-13T11:09:28;6.75;;;2.70;;
17997;SDS011;9124;48.144;17.098;2022-09-13T11:13:39;4.10;;;2.67;;
17997;SDS011;9124;48.144;17.098;2022-09-13T11:37:20;2.55;;;2.40;;
17997;SDS011;9124;48.144;17.098;2022-09-13T11:44:57;2.33;;;2.17;;
17997;SDS011;9124;48.144;17.098;2022-09-13T11:52:52;3.03;;;2.53;;
17997;SDS011;9124;48.144;17.098;2022-09-13T11:57:01;4.85;;;2.80;;
17997;SDS011;9124;48.144;17.098;2022-09-13T12:00:54;2.72;;;2.53;;
17997;SDS011;9124;48.144;17.098;2022-09-13T12:09:04;4.57;;;2.50;;
17997;SDS011;9124;48.144;17.098;2022-09-13T12:12:52;3.42;;;2.42;;
17997;SDS011;9124;48.144;17.098;2022-09-13T12:16:34;5.60;;;2.83;;
17997;SDS011;9124;48.144;17.098;2022-09-13T12:24:25;5.72;;;2.67;;
17997;SDS011;9124;48.144;17.098;2022-09-13T12:28:09;3.95;;;2.17;;
17997;SDS011;9124;48.144;17.098;2022-09-13T12:32:26;5.68;;;2.63;;
17997;SDS011;9124;48.144;17.098;2022-09-13T13:03:31;2.15;;;2.05;;
17997;SDS011;9124;48.144;17.098;2022-09-13T13:07:18;5.05;;;2.10;;
17997;SDS011;9124;48.144;17.098;2022-09-13T13:18:25;1.83;;;1.73;;
17997;SDS011;9124;48.144;17.098;2022-09-13T13:34:39;5.65;;;2.05;;
17997;SDS011;9124;48.144;17.098;2022-09-13T13:42:01;2.10;;;1.80;;
17997;SDS011;9124;48.144;17.098;2022-09-13T13:49:50;5.97;;;2.60;;
17997;SDS011;9124;48.144;17.098;2022-09-13T13:53:39;1.58;;;1.48;;
17997;SDS011;9124;48.144;17.098;2022-09-13T14:01:13;1.92;;;1.80;;
17997;SDS011;9124;48.144;17.098;2022-09-13T14:05:03;1.83;;;1.70;;
17997;SDS011;9124;48.144;17.098;2022-09-13T14:08:59;2.20;;;2.00;;
17997;SDS011;9124;48.144;17.098;2022-09-13T14:16:55;4.95;;;4.53;;
17997;SDS011;9124;48.144;17.098;2022-09-13T14:21:16;8.77;;;4.38;;
17997;SDS011;9124;48.144;17.098;2022-09-13T14:28:58;3.92;;;2.13;;
17997;SDS011;9124;48.144;17.098;2022-09-13T14:32:39;2.33;;;2.20;;
17997;SDS011;9124;48.144;17.098;2022-09-13T14:36:21;5.57;;;5.07;;
17997;SDS011;9124;48.144;17.098;2022-09-13T14:43:45;4.50;;;2.38;;
17997;SDS011;9124;48.144;17.098;2022-09-13T14:47:27;2.17;;;2.00;;
17997;SDS011;9124;48.144;17.098;2022-09-13T14:51:37;4.03;;;1.77;;
17997;SDS011;9124;48.144;17.098;2022-09-13T14:55:20;2.65;;;1.85;;
17997;SDS011;9124;48.144;17.098;2022-09-13T14:59:23;2.97;;;2.17;;
17997;SDS011;9124;48.144;17.098;2022-09-13T15:03:11;5.93;;;2.22;;
17997;SDS011;9124;48.144;17.098;2022-09-13T15:11:26;3.00;;;2.15;;
17997;SDS011;9124;48.144;17.098;2022-09-13T15:15:20;2.92;;;2.13;;
17997;SDS011;9124;48.144;17.098;2022-09-13T15:23:00;3.97;;;1.95;;
17997;SDS011;9124;48.144;17.098;2022-09-13T15:26:37;3.40;;;1.83;;
17997;SDS011;9124;48.144;17.098;2022-09-13T15:30:37;4.38;;;2.00;;
17997;SDS011;9124;48.144;17.098;2022-09-13T15:38:00;3.88;;;2.13;;
17997;SDS011;9124;48.144;17.098;2022-09-13T15:41:58;4.50;;;2.75;;
17997;SDS011;9124;48.144;17.098;2022-09-13T15:45:36;5.03;;;2.22;;
17997;SDS011;9124;48.144;17.098;2022-09-13T15:49:16;3.38;;;3.08;;
17997;SDS011;9124;48.144;17.098;2022-09-13T15:52:59;2.97;;;2.78;;
17997;SDS011;9124;48.144;17.098;2022-09-13T15:56:36;3.63;;;2.72;;
17997;SDS011;9124;48.144;17.098;2022-09-13T16:00:20;3.13;;;2.53;;
17997;SDS011;9124;48.144;17.098;2022-09-13T16:03:59;2.97;;;2.67;;
17997;SDS011;9124;48.144;17.098;2022-09-13T16:07:39;4.68;;;3.00;;
17997;SDS011;9124;48.144;17.098;2022-09-13T16:11:16;4.75;;;2.67;;
17997;SDS011;9124;48.144;17.098;2022-09-13T16:14:53;3.60;;;3.30;;
17997;SDS011;9124;48.144;17.098;2022-09-13T16:18:29;7.68;;;3.60;;
17997;SDS011;9124;48.144;17.098;2022-09-13T16:22:07;5.13;;;4.38;;
17997;SDS011;9124;48.144;17.098;2022-09-13T16:25:43;6.88;;;3.38;;
17997;SDS011;9124;48.144;17.098;2022-09-13T16:29:21;5.03;;;2.38;;
17997;SDS011;9124;48.144;17.098;2022-09-13T16:32:58;2.42;;;1.75;;
17997;SDS011;9124;48.144;17.098;2022-09-13T16:36:36;2.05;;;1.85;;
17997;SDS011;9124;48.144;17.098;2022-09-13T16:40:13;2.35;;;1.90;;
17997;SDS011;9124;48.144;17.098;2022-09-13T16:43:50;2.30;;;2.03;;
17997;SDS011;9124;48.144;17.098;2022-09-13T16:47:28;5.40;;;2.10;;
17997;SDS011;9124;48.144;17.098;2022-09-13T16:51:07;2.60;;;2.30;;
17997;SDS011;9124;48.144;17.098;2022-09-13T16:54:45;3.08;;;2.05;;
17997;SDS011;9124;48.144;17.098;2022-09-13T16:58:25;3.67;;;2.00;;
17997;SDS011;9124;48.144;17.098;2022-09-13T17:12:04;2.60;;;2.40;;
17997;SDS011;9124;48.144;17.098;2022-09-13T17:15:42;2.58;;;2.38;;
17997;SDS011;9124;48.144;17.098;2022-09-13T17:19:23;4.93;;;2.75;;
17997;SDS011;9124;48.144;17.098;2022-09-13T17:23:05;3.38;;;2.15;;
17997;SDS011;9124;48.144;17.098;2022-09-13T17:26:42;2.47;;;2.22;;
17997;SDS011;9124;48.144;17.098;2022-09-13T17:30:19;2.08;;;1.75;;
17997;SDS011;9124;48.144;17.098;2022-09-13T17:33:55;2.30;;;2.15;;
17997;SDS011;9124;48.144;17.098;2022-09-13T17:37:32;2.60;;;2.28;;
17997;SDS011;9124;48.144;17.098;2022-09-13T17:41:10;2.35;;;2.25;;
17997;SDS011;9124;48.144;17.098;2022-09-13T17:44:50;3.20;;;2.90;;
17997;SDS011;9124;48.144;17.098;2022-09-13T17:48:26;2.95;;;2.75;;
17997;SDS011;9124;48.144;17.098;2022-09-13T17:52:03;2.55;;;2.30;;
17997;SDS011;9124;48.144;17.098;2022-09-13T17:55:49;2.60;;;2.40;;
17997;SDS011;9124;48.144;17.098;2022-09-13T17:59:26;2.55;;;2.40;;
17997;SDS011;9124;48.144;17.098;2022-09-13T18:03:03;7.53;;;4.10;;
17997;SDS011;9124;48.144;17.098;2022-09-13T18:06:39;2.83;;;2.35;;
17997;SDS011;9124;48.144;17.098;2022-09-13T18:10:17;2.72;;;2.53;;
17997;SDS011;9124;48.144;17.098;2022-09-13T18:13:54;3.72;;;2.35;;
17997;SDS011;9124;48.144;17.098;2022-09-13T18:17:31;3.47;;;3.17;;
17997;SDS011;9124;48.144;17.098;2022-09-13T18:21:08;3.72;;;3.13;;
17997;SDS011;9124;48.144;17.098;2022-09-13T18:24:45;3.15;;;2.95;;
17997;SDS011;9124;48.144;17.098;2022-09-13T18:28:22;4.80;;;4.40;;
17997;SDS011;9124;48.144;17.098;2022-09-13T18:31:58;10.38;;;3.10;;
17997;SDS011;9124;48.144;17.098;2022-09-13T18:35:35;5.55;;;3.33;;
17997;SDS011;9124;48.144;17.098;2022-09-13T18:39:13;4.50;;;2.63;;
17997;SDS011;9124;48.144;17.098;2022-09-13T18:42:53;2.88;;;2.33;;
17997;SDS011;9124;48.144;17.098;2022-09-13T18:46:30;2.13;;;2.03;;
17997;SDS011;9124;48.144;17.098;2022-09-13T18:50:09;2.90;;;2.70;;
17997;SDS011;9124;48.144;17.098;2022-09-13T18:53:46;2.90;;;2.70;;
17997;SDS011;9124;48.144;17.098;2022-09-13T18:57:23;3.70;;;2.47;;
17997;SDS011;9124;48.144;17.098;2022-09-13T19:01:00;3.55;;;3.35;;
17997;SDS011;9124;48.144;17.098;2022-09-13T19:04:39;2.10;;;2.00;;
17997;SDS011;9124;48.144;17.098;2022-09-13T19:08:16;4.30;;;2.30;;
17997;SDS011;9124;48.144;17.098;2022-09-13T19:11:53;2.88;;;2.30;;
17997;SDS011;9124;48.144;17.098;2022-09-13T19:24:49;6.25;;;2.60;;
17997;SDS011;9124;48.144;17.098;2022-09-13T19:28:27;5.10;;;2.72;;
17997;SDS011;9124;48.144;17.098;2022-09-13T19:32:04;4.60;;;3.30;;
17997;SDS011;9124;48.144;17.098;2022-09-13T19:35:41;3.03;;;2.72;;
17997;SDS011;9124;48.144;17.098;2022-09-13T19:39:18;3.78;;;3.28;;
17997;SDS011;9124;48.144;17.098;2022-09-13T19:42:54;3.65;;;3.38;;
17997;SDS011;9124;48.144;17.098;2022-09-13T19:46:33;2.85;;;2.65;;
17997;SDS011;9124;48.144;17.098;2022-09-13T19:50:12;3.83;;;3.05;;
17997;SDS011;9124;48.144;17.098;2022-09-13T19:53:50;20.35;;;6.35;;
17997;SDS011;9124;48.144;17.098;2022-09-13T19:57:28;4.38;;;2.92;;
17997;SDS011;9124;48.144;17.098;2022-09-13T20:01:10;3.75;;;2.92;;
17997;SDS011;9124;48.144;17.098;2022-09-13T20:04:49;6.35;;;3.08;;
17997;SDS011;9124;48.144;17.098;2022-09-13T20:08:26;6.45;;;2.72;;
17997;SDS011;9124;48.144;17.098;2022-09-13T20:12:03;3.47;;;3.17;;
17997;SDS011;9124;48.144;17.098;2022-09-13T20:15:42;3.45;;;3.15;;
17997;SDS011;9124;48.144;17.098;2022-09-13T20:19:18;4.25;;;3.63;;
17997;SDS011;9124;48.144;17.098;2022-09-13T20:22:55;3.67;;;3.30;;
17997;SDS011;9124;48.144;17.098;2022-09-13T20:26:32;3.58;;;3.15;;
17997;SDS011;9124;48.144;17.098;2022-09-13T20:30:11;4.05;;;3.67;;
17997;SDS011;9124;48.144;17.098;2022-09-13T20:33:47;3.15;;;2.88;;
17997;SDS011;9124;48.144;17.098;2022-09-13T20:37:29;8.18;;;2.83;;
17997;SDS011;9124;48.144;17.098;2022-09-13T20:41:06;3.67;;;2.97;;
17997;SDS011;9124;48.144;17.098;2022-09-13T20:44:48;3.90;;;2.90;;
17997;SDS011;9124;48.144;17.098;2022-09-13T20:48:25;3.67;;;3.38;;
17997;SDS011;9124;48.144;17.098;2022-09-13T20:52:02;3.67;;;2.92;;
17997;SDS011;9124;48.144;17.098;2022-09-13T20:55:39;4.05;;;3.70;;
17997;SDS011;9124;48.144;17.098;2022-09-13T20:59:16;10.60;;;3.60;;
17997;SDS011;9124;48.144;17.098;2022-09-13T21:12:12;6.25;;;2.80;;
17997;SDS011;9124;48.144;17.098;2022-09-13T21:15:50;3.15;;;2.90;;
17997;SDS011;9124;48.144;17.098;2022-09-13T21:19:27;3.20;;;2.90;;
17997;SDS011;9124;48.144;17.098;2022-09-13T21:23:04;5.32;;;3.40;;
17997;SDS011;9124;48.144;17.098;2022-09-13T21:26:41;4.53;;;3.45;;
17997;SDS011;9124;48.144;17.098;2022-09-13T21:30:18;4.38;;;3.63;;
17997;SDS011;9124;48.144;17.098;2022-09-13T21:33:55;3.15;;;2.85;;
17997;SDS011;9124;48.144;17.098;2022-09-13T21:37:34;6.47;;;3.10;;
17997;SDS011;9124;48.144;17.098;2022-09-13T21:41:12;3.53;;;3.22;;
17997;SDS011;9124;48.144;17.098;2022-09-13T21:44:51;5.28;;;3.25;;
17997;SDS011;9124;48.144;17.098;2022-09-13T21:48:32;2.97;;;2.78;;
17997;SDS011;9124;48.144;17.098;2022-09-13T21:52:10;3.78;;;3.47;;
17997;SDS011;9124;48.144;17.098;2022-09-13T21:55:47;3.33;;;3.05;;
17997;SDS011;9124;48.144;17.098;2022-09-13T21:59:24;5.85;;;3.10;;
17997;SDS011;9124;48.144;17.098;2022-09-13T22:03:00;3.20;;;3.00;;
17997;SDS011;9124;48.144;17.098;2022-09-13T22:06:37;5.80;;;3.35;;
17997;SDS011;9124;48.144;17.098;2022-09-13T22:10:14;4.18;;;3.50;;
17997;SDS011;9124;48.144;17.098;2022-09-13T22:13:51;3.30;;;3.10;;
17997;SDS011;9124;48.144;17.098;2022-09-13T22:17:29;4.65;;;3.70;;
17997;SDS011;9124;48.144;17.098;2022-09-13T22:21:06;3.78;;;3.40;;
17997;SDS011;9124;48.144;17.098;2022-09-13T22:24:44;4.53;;;3.55;;
17997;SDS011;9124;48.144;17.098;2022-09-13T22:28:21;3.53;;;3.33;;
17997;SDS011;9124;48.144;17.098;2022-09-13T22:31:58;4.00;;;3.65;;
17997;SDS011;9124;48.144;17.098;2022-09-13T22:35:35;5.03;;;4.57;;
17997;SDS011;9124;48.144;17.098;2022-09-13T22:39:12;7.35;;;3.75;;
17997;SDS011;9124;48.144;17.098;2022-09-13T22:42:50;7.05;;;4.07;;
17997;SDS011;9124;48.144;17.098;2022-09-13T22:46:31;4.90;;;4.40;;
17997;SDS011;9124;48.144;17.098;2022-09-13T22:50:13;4.38;;;4.05;;
17997;SDS011;9124;48.144;17.098;2022-09-13T22:53:51;5.25;;;4.00;;
17997;SDS011;9124;48.144;17.098;2022-09-13T22:57:30;7.43;;;4.50;;
17997;SDS011;9124;48.144;17.098;2022-09-13T23:01:11;5.22;;;4.82;;
17997;SDS011;9124;48.144;17.098;2022-09-13T23:04:49;7.45;;;5.15;;
17997;SDS011;9124;48.144;17.098;2022-09-13T23:08:26;6.68;;;4.22;;
17997;SDS011;9124;48.144;17.098;2022-09-13T23:12:03;5.93;;;4.82;;
17997;SDS011;9124;48.144;17.098;2022-09-13T23:25:02;8.27;;;5.80;;
17997;SDS011;9124;48.144;17.098;2022-09-13T23:28:39;5.25;;;4.68;;
17997;SDS011;9124;48.144;17.098;2022-09-13T23:32:16;9.85;;;5.53;;
17997;SDS011;9124;48.144;17.098;2022-09-13T23:35:56;5.25;;;4.85;;
17997;SDS011;9124;48.144;17.098;2022-09-13T23:39:33;6.82;;;5.45;;
17997;SDS011;9124;48.144;17.098;2022-09-13T23:43:10;6.90;;;5.22;;
17997;SDS011;9124;48.144;17.098;2022-09-13T23:46:47;5.78;;;5.22;;
17997;SDS011;9124;48.144;17.098;2022-09-13T23:50:24;5.25;;;4.95;;
17997;SDS011;9124;48.144;17.098;2022-09-13T23:54:01;6.20;;;5.15;;
17997;SDS011;9124;48.144;17.098;2022-09-13T23:57:39;6.00;;;5.35;;
